createdAt,value
2017-12-08T00:00:20.331Z,2.47
2017-12-08T00:02:48.750Z,1.90
2017-12-08T00:05:18.712Z,2.47
2017-12-08T00:07:47.131Z,2.27
2017-12-08T00:10:15.571Z,1.90
2017-12-08T00:12:44.807Z,2.43
2017-12-08T00:15:13.238Z,1.80
2017-12-08T00:17:42.444Z,2.13
2017-12-08T00:20:11.631Z,3.13
2017-12-08T00:22:40.859Z,2.00
2017-12-08T00:25:09.298Z,2.27
2017-12-08T00:27:37.943Z,1.70
2017-12-08T00:30:06.379Z,2.20
2017-12-08T00:32:34.802Z,1.63
2017-12-08T00:35:03.235Z,2.00
2017-12-08T00:37:31.669Z,1.40
2017-12-08T00:40:00.251Z,2.17
2017-12-08T00:42:28.687Z,1.90
2017-12-08T00:44:57.119Z,2.00
2017-12-08T00:47:25.634Z,2.30
2017-12-08T00:49:54.386Z,1.50
2017-12-08T00:52:22.826Z,1.83
2017-12-08T00:54:52.019Z,2.00
2017-12-08T00:57:20.436Z,2.10
2017-12-08T00:59:48.863Z,2.10
2017-12-08T01:02:17.286Z,2.00
2017-12-08T01:04:45.790Z,2.10
2017-12-08T01:07:14.226Z,2.20
2017-12-08T01:09:42.671Z,1.73
2017-12-08T01:12:11.094Z,1.73
2017-12-08T01:14:39.542Z,1.70
2017-12-08T01:17:07.987Z,1.40
2017-12-08T01:19:36.421Z,1.87
2017-12-08T01:22:04.834Z,1.90
2017-12-08T01:24:34.035Z,1.60
2017-12-08T01:27:03.263Z,1.80
2017-12-08T01:29:31.698Z,1.60
2017-12-08T01:32:00.157Z,2.00
2017-12-08T01:34:28.710Z,1.77
2017-12-08T01:36:57.174Z,1.60
2017-12-08T01:39:25.590Z,1.50
2017-12-08T01:41:54.078Z,1.57
2017-12-08T01:44:22.512Z,2.47
2017-12-08T01:46:51.758Z,1.57
2017-12-08T01:49:19.879Z,1.50
2017-12-08T01:51:49.059Z,1.30
2017-12-08T01:54:18.383Z,1.63
2017-12-08T01:56:47.624Z,1.23
2017-12-08T01:59:15.866Z,1.40
2017-12-08T02:01:45.051Z,1.67
2017-12-08T02:04:13.936Z,1.30
2017-12-08T02:06:42.402Z,1.50
2017-12-08T02:09:10.903Z,1.47
2017-12-08T02:11:39.398Z,1.23
2017-12-08T02:14:08.590Z,1.77
2017-12-08T02:16:37.910Z,1.50
2017-12-08T02:19:05.674Z,1.20
2017-12-08T02:21:33.986Z,1.77
2017-12-08T02:24:02.272Z,1.60
2017-12-08T02:26:30.710Z,1.83
2017-12-08T02:28:59.178Z,1.70
2017-12-08T02:31:28.208Z,1.50
2017-12-08T02:33:56.640Z,1.87
2017-12-08T02:36:25.050Z,1.30
2017-12-08T02:38:53.490Z,1.63
2017-12-08T02:41:21.939Z,1.50
2017-12-08T02:43:50.381Z,1.80
2017-12-08T02:46:19.564Z,2.00
2017-12-08T02:48:48.003Z,1.50
2017-12-08T02:51:15.763Z,2.00
2017-12-08T02:53:44.287Z,1.70
2017-12-08T02:56:12.710Z,1.83
2017-12-08T02:58:41.510Z,1.80
2017-12-08T03:01:09.468Z,2.40
2017-12-08T03:03:38.083Z,1.90
2017-12-08T03:06:06.503Z,1.73
2017-12-08T03:08:34.239Z,1.77
2017-12-08T03:11:02.683Z,2.23
2017-12-08T03:13:31.101Z,1.90
2017-12-08T03:15:59.194Z,2.50
2017-12-08T03:18:27.619Z,2.10
2017-12-08T03:20:55.401Z,2.33
2017-12-08T03:23:23.885Z,2.30
2017-12-08T03:25:52.402Z,2.77
2017-12-08T03:28:20.822Z,2.30
2017-12-08T03:30:50.027Z,1.90
2017-12-08T03:33:19.210Z,2.00
2017-12-08T03:35:48.414Z,2.23
2017-12-08T03:38:17.606Z,2.10
2017-12-08T03:40:45.712Z,2.23
2017-12-08T03:43:14.159Z,1.80
2017-12-08T03:45:42.599Z,2.27
2017-12-08T03:48:11.044Z,2.20
2017-12-08T03:50:40.240Z,2.20
2017-12-08T03:53:10.355Z,2.07
2017-12-08T03:55:39.224Z,2.10
2017-12-08T03:58:07.302Z,2.10
2017-12-08T04:00:36.506Z,1.67
2017-12-08T04:03:05.192Z,2.00
2017-12-08T04:05:33.631Z,2.07
2017-12-08T04:08:02.071Z,2.00
2017-12-08T04:10:31.302Z,1.70
2017-12-08T04:12:59.750Z,1.90
2017-12-08T04:15:29.006Z,2.00
2017-12-08T04:17:56.766Z,1.57
2017-12-08T04:20:25.186Z,2.20
2017-12-08T04:22:54.379Z,2.40
2017-12-08T04:25:22.811Z,2.10
2017-12-08T04:27:51.415Z,1.73
2017-12-08T04:30:19.833Z,1.83
2017-12-08T04:32:49.031Z,1.60
2017-12-08T04:35:17.108Z,1.50
2017-12-08T04:37:46.307Z,2.23
2017-12-08T04:40:15.155Z,1.60
2017-12-08T04:42:43.591Z,1.70
2017-12-08T04:45:12.846Z,1.93
2017-12-08T04:47:41.266Z,1.77
2017-12-08T04:50:09.946Z,2.07
2017-12-08T04:52:38.802Z,2.27
2017-12-08T04:55:07.245Z,1.30
2017-12-08T04:57:36.514Z,1.60
2017-12-08T05:00:04.331Z,1.30
2017-12-08T05:02:32.766Z,1.70
2017-12-08T05:05:00.838Z,1.40
2017-12-08T05:07:29.519Z,1.20
2017-12-08T05:09:58.149Z,1.97
2017-12-08T05:12:26.835Z,1.60
2017-12-08T05:14:55.256Z,2.10
2017-12-08T05:17:23.680Z,1.77
2017-12-08T05:19:52.886Z,1.90
2017-12-08T05:22:20.644Z,2.10
2017-12-08T05:24:49.527Z,1.97
2017-12-08T05:27:18.086Z,2.17
2017-12-08T05:29:46.514Z,1.93
2017-12-08T05:32:15.211Z,1.90
2017-12-08T05:34:44.007Z,2.10
2017-12-08T05:37:13.570Z,2.00
2017-12-08T05:39:42.782Z,2.43
2017-12-08T05:42:11.228Z,2.40
2017-12-08T05:44:42.218Z,2.20
2017-12-08T05:47:11.031Z,2.40
2017-12-08T05:49:40.499Z,2.50
2017-12-08T05:52:09.706Z,3.83
2017-12-08T05:54:39.902Z,2.40
2017-12-08T05:57:08.143Z,2.43
2017-12-08T05:59:36.833Z,3.20
2017-12-08T06:02:04.615Z,2.47
2017-12-08T06:04:33.052Z,3.63
2017-12-08T06:07:01.500Z,2.53
2017-12-08T06:09:29.958Z,3.60
2017-12-08T06:11:58.655Z,2.45
2017-12-08T06:14:27.182Z,3.03
2017-12-08T06:16:55.886Z,3.30
2017-12-08T06:19:24.323Z,3.40
2017-12-08T06:21:52.953Z,3.53
2017-12-08T06:24:21.390Z,3.47
2017-12-08T06:26:50.092Z,3.62
2017-12-08T06:29:18.859Z,3.60
2017-12-08T06:31:47.592Z,4.37
2017-12-08T06:34:16.058Z,3.10
2017-12-08T06:36:44.516Z,3.20
2017-12-08T06:39:12.958Z,5.00
2017-12-08T06:41:41.399Z,3.90
2017-12-08T06:44:10.108Z,4.68
2017-12-08T06:46:38.583Z,4.87
2017-12-08T06:49:07.354Z,4.22
2017-12-08T06:51:36.072Z,4.12
2017-12-08T06:54:04.492Z,3.77
2017-12-08T06:56:33.207Z,4.43
2017-12-08T06:59:02.545Z,4.83
2017-12-08T07:01:31.008Z,4.80
2017-12-08T07:03:59.703Z,5.00
2017-12-08T07:06:28.167Z,5.63
2017-12-08T07:08:57.400Z,4.50
2017-12-08T07:11:25.527Z,5.13
2017-12-08T07:13:54.714Z,4.63
2017-12-08T07:16:23.258Z,4.63
2017-12-08T07:18:51.690Z,4.47
2017-12-08T07:21:20.111Z,4.40
2017-12-08T07:23:48.263Z,3.83
2017-12-08T07:26:18.316Z,4.20
2017-12-08T07:28:46.751Z,4.20
2017-12-08T07:31:15.444Z,4.00
2017-12-08T07:33:44.908Z,5.27
2017-12-08T07:36:13.607Z,3.72
2017-12-08T07:38:42.051Z,5.43
2017-12-08T07:41:10.511Z,3.17
2017-12-08T07:43:39.215Z,5.10
2017-12-08T07:46:07.710Z,4.13
2017-12-08T07:48:35.807Z,3.50
2017-12-08T07:51:03.911Z,3.30
2017-12-08T07:53:32.406Z,3.40
2017-12-08T07:56:01.710Z,3.40
2017-12-08T07:58:30.918Z,2.90
2017-12-08T08:00:59.641Z,3.20
2017-12-08T08:03:28.100Z,3.10
2017-12-08T08:05:57.012Z,2.95
2017-12-08T08:08:25.448Z,2.47
2017-12-08T08:10:54.377Z,3.70
2017-12-08T08:13:22.793Z,3.57
2017-12-08T08:15:50.573Z,3.03
2017-12-08T08:20:53.494Z,2.87
2017-12-08T08:23:22.203Z,2.55
2017-12-08T08:25:51.035Z,2.85
2017-12-08T08:28:19.719Z,3.37
2017-12-08T08:30:48.111Z,2.97
2017-12-08T08:33:16.595Z,3.60
2017-12-08T08:35:44.956Z,2.85
2017-12-08T08:38:13.398Z,2.90
2017-12-08T08:40:42.111Z,4.00
2017-12-08T08:43:11.570Z,2.65
2017-12-08T08:45:40.263Z,3.17
2017-12-08T08:48:09.107Z,3.75
2017-12-08T08:50:37.523Z,2.53
2017-12-08T08:53:05.636Z,2.80
2017-12-08T08:55:34.519Z,2.30
2017-12-08T08:58:02.963Z,2.50
2017-12-08T09:00:31.060Z,2.80
2017-12-08T09:03:00.254Z,2.80
2017-12-08T09:05:29.239Z,3.37
2017-12-08T09:07:58.467Z,4.10
2017-12-08T09:10:26.563Z,2.53
2017-12-08T09:12:55.148Z,2.80
2017-12-08T09:15:23.396Z,2.67
2017-12-08T09:17:51.871Z,2.33
2017-12-08T09:20:21.083Z,3.10
2017-12-08T09:22:49.807Z,3.97
2017-12-08T09:25:18.511Z,3.60
2017-12-08T09:27:46.962Z,2.77
2017-12-08T09:30:15.412Z,2.87
2017-12-08T09:32:43.835Z,2.83
2017-12-08T09:35:11.931Z,2.93
2017-12-08T09:37:40.559Z,2.20
2017-12-08T09:40:09.762Z,3.13
2017-12-08T09:42:38.195Z,2.30
2017-12-08T09:45:05.939Z,2.17
2017-12-08T09:47:34.534Z,2.23
2017-12-08T09:50:03.018Z,2.20
2017-12-08T09:52:31.466Z,2.40
2017-12-08T09:54:59.898Z,2.37
2017-12-08T09:57:28.405Z,1.67
2017-12-08T09:59:57.396Z,1.70
2017-12-08T10:02:25.835Z,2.60
2017-12-08T10:04:54.262Z,1.80
2017-12-08T10:07:23.482Z,2.40
2017-12-08T10:09:51.582Z,2.27
2017-12-08T10:12:20.035Z,2.10
2017-12-08T10:14:48.463Z,1.80
2017-12-08T10:17:17.339Z,2.23
2017-12-08T10:19:45.907Z,1.83
2017-12-08T10:22:13.851Z,2.13
2017-12-08T10:24:43.127Z,2.03
2017-12-08T10:27:11.666Z,2.33
2017-12-08T10:29:40.104Z,2.40
2017-12-08T10:32:08.520Z,2.20
2017-12-08T10:34:37.111Z,1.83
2017-12-08T10:37:05.535Z,2.27
2017-12-08T10:39:33.991Z,1.77
2017-12-08T10:42:02.419Z,2.33
2017-12-08T10:44:31.368Z,1.93
2017-12-08T10:46:59.795Z,2.47
2017-12-08T10:49:29.022Z,1.90
2017-12-08T10:51:57.450Z,1.80
2017-12-08T10:54:25.997Z,1.80
2017-12-08T10:56:54.486Z,1.93
2017-12-08T10:59:22.915Z,2.37
2017-12-08T11:01:51.354Z,2.20
2017-12-08T11:04:19.789Z,1.93
2017-12-08T11:06:49.230Z,1.77
2017-12-08T11:09:17.662Z,2.37
2017-12-08T11:11:46.098Z,1.77
2017-12-08T11:14:14.530Z,1.80
2017-12-08T11:16:43.470Z,1.97
2017-12-08T11:19:11.799Z,1.60
2017-12-08T11:21:40.052Z,3.70
2017-12-08T11:24:08.486Z,2.13
2017-12-08T11:26:37.087Z,1.53
2017-12-08T11:29:05.707Z,1.80
2017-12-08T11:31:34.114Z,2.00
2017-12-08T11:34:03.327Z,1.80
2017-12-08T11:36:32.519Z,1.57
2017-12-08T11:39:01.724Z,1.90
2017-12-08T11:41:30.574Z,2.17
2017-12-08T11:43:59.007Z,2.43
2017-12-08T11:46:28.187Z,1.50
2017-12-08T11:48:57.214Z,1.87
2017-12-08T11:51:25.783Z,1.50
2017-12-08T11:53:54.271Z,2.03
2017-12-08T11:56:22.868Z,1.43
2017-12-08T11:58:51.459Z,2.00
2017-12-08T12:01:20.925Z,1.80
2017-12-08T12:03:50.119Z,1.90
2017-12-08T12:06:18.540Z,2.20
2017-12-08T12:08:47.017Z,1.77
2017-12-08T12:11:15.709Z,1.90
2017-12-08T12:13:45.182Z,1.70
2017-12-08T12:16:14.379Z,1.80
2017-12-08T12:18:43.597Z,2.00
2017-12-08T12:21:12.781Z,1.60
2017-12-08T12:23:41.987Z,1.53
2017-12-08T12:26:11.219Z,1.80
2017-12-08T12:28:40.875Z,2.08
2017-12-08T12:31:09.588Z,2.40
2017-12-08T12:33:38.304Z,2.03
2017-12-08T12:36:07.167Z,2.30
2017-12-08T12:38:35.884Z,2.05
2017-12-08T12:41:05.347Z,1.80
2017-12-08T12:43:34.063Z,1.30
2017-12-08T12:46:02.767Z,0.90
2017-12-08T12:48:32.239Z,0.82
2017-12-08T12:51:00.615Z,0.68
2017-12-08T12:53:29.358Z,0.80
2017-12-08T12:55:58.072Z,0.60
2017-12-08T12:58:26.856Z,0.60
2017-12-08T13:00:55.577Z,0.60
2017-12-08T13:03:24.931Z,0.40
2017-12-08T13:05:53.707Z,0.60
2017-12-08T13:08:23.186Z,0.60
2017-12-08T13:10:51.976Z,0.50
2017-12-08T13:13:20.835Z,0.40
2017-12-08T13:15:49.549Z,0.60
2017-12-08T13:18:18.258Z,0.50
2017-12-08T13:20:47.770Z,0.70
2017-12-08T13:23:17.035Z,0.75
2017-12-08T13:25:45.754Z,0.62
2017-12-08T13:28:15.276Z,0.70
2017-12-08T13:30:44.002Z,0.90
2017-12-08T13:33:12.810Z,1.08
2017-12-08T13:35:41.526Z,1.00
2017-12-08T13:38:10.986Z,0.85
2017-12-08T13:40:39.691Z,1.20
2017-12-08T13:43:08.397Z,1.15
2017-12-08T13:45:37.297Z,0.80
2017-12-08T13:48:06.804Z,1.35
2017-12-08T13:50:37.725Z,1.05
2017-12-08T13:53:17.610Z,0.93
2017-12-08T13:55:57.635Z,1.70
2017-12-08T13:58:26.355Z,1.42
2017-12-08T14:00:55.071Z,1.10
2017-12-08T14:03:23.422Z,1.42
2017-12-08T14:05:52.115Z,1.35
2017-12-08T14:08:20.160Z,1.55
2017-12-08T14:10:49.308Z,1.30
2017-12-08T14:13:17.674Z,1.42
2017-12-08T14:15:46.636Z,0.93
2017-12-08T14:18:16.115Z,1.30
2017-12-08T14:20:46.326Z,1.48
2017-12-08T14:23:15.055Z,1.30
2017-12-08T14:25:44.518Z,1.00
2017-12-08T14:28:13.276Z,1.30
2017-12-08T14:30:41.972Z,1.50
2017-12-08T14:33:10.343Z,0.90
2017-12-08T14:35:39.052Z,0.60
2017-12-08T14:38:07.446Z,1.02
2017-12-08T14:40:36.150Z,1.10
2017-12-08T14:43:04.868Z,1.17
2017-12-08T14:45:33.715Z,0.80
2017-12-08T14:48:02.571Z,1.17
2017-12-08T14:50:31.942Z,1.12
2017-12-08T14:53:01.042Z,0.90
2017-12-08T14:55:30.928Z,1.00
2017-12-08T14:58:00.328Z,1.30
2017-12-08T15:00:30.154Z,0.90
2017-12-08T15:03:00.139Z,1.12
2017-12-08T15:05:29.186Z,1.05
2017-12-08T15:07:58.487Z,1.37
2017-12-08T15:10:27.211Z,1.23
2017-12-08T15:12:56.466Z,1.40
2017-12-08T15:15:25.211Z,1.70
2017-12-08T15:17:53.970Z,1.65
2017-12-08T15:20:22.836Z,1.40
2017-12-08T15:22:51.554Z,1.30
2017-12-08T15:25:20.260Z,1.70
2017-12-08T15:27:48.936Z,1.50
2017-12-08T15:30:17.662Z,1.20
2017-12-08T15:32:46.392Z,1.60
2017-12-08T15:35:15.866Z,1.60
2017-12-08T15:37:44.220Z,1.95
2017-12-08T15:40:12.622Z,2.10
2017-12-08T15:42:41.343Z,1.85
2017-12-08T15:45:10.911Z,1.40
2017-12-08T15:47:38.951Z,1.90
2017-12-08T15:50:07.010Z,1.25
2017-12-08T15:52:35.168Z,1.52
2017-12-08T15:55:03.297Z,2.40
2017-12-08T15:57:31.798Z,1.60
2017-12-08T16:00:00.500Z,1.40
2017-12-08T16:02:29.179Z,1.58
2017-12-08T16:04:57.898Z,1.95
2017-12-08T16:07:27.035Z,1.70
2017-12-08T16:09:55.772Z,1.35
2017-12-08T16:12:24.898Z,1.50
2017-12-08T16:14:53.595Z,1.87
2017-12-08T16:17:22.326Z,1.90
2017-12-08T16:19:51.113Z,7.40
2017-12-08T16:22:20.006Z,18.33
2017-12-08T16:24:48.431Z,12.75
2017-12-08T16:27:17.173Z,9.75
2017-12-08T16:29:45.879Z,5.40
2017-12-08T16:32:14.669Z,4.07
2017-12-08T16:34:43.391Z,6.18
2017-12-08T16:37:12.131Z,6.20
2017-12-08T16:39:40.503Z,7.57
2017-12-08T16:42:08.876Z,4.75
2017-12-08T16:44:37.646Z,4.00
2017-12-08T16:47:06.380Z,3.25
2017-12-08T16:49:35.087Z,2.80
2017-12-08T16:52:04.567Z,3.50
2017-12-08T16:54:33.295Z,3.05
2017-12-08T16:57:02.019Z,3.17
2017-12-08T16:59:30.748Z,2.95
2017-12-08T17:02:00.207Z,3.05
2017-12-08T17:04:28.947Z,2.65
2017-12-08T17:06:58.428Z,2.67
2017-12-08T17:09:27.141Z,2.90
2017-12-08T17:11:56.617Z,3.65
2017-12-08T17:14:25.407Z,2.80
2017-12-08T17:16:53.451Z,3.05
2017-12-08T17:19:21.929Z,2.87
2017-12-08T17:21:50.329Z,3.58
2017-12-08T17:24:19.048Z,3.10
2017-12-08T17:26:47.122Z,2.70
2017-12-08T17:29:15.143Z,3.00
2017-12-08T17:31:43.626Z,2.37
2017-12-08T17:34:11.676Z,2.15
2017-12-08T17:36:40.439Z,2.58
2017-12-08T17:39:09.165Z,2.40
2017-12-08T17:41:37.908Z,4.30
2017-12-08T17:44:06.782Z,2.65
2017-12-08T17:46:36.297Z,3.60
2017-12-08T17:49:04.991Z,2.30
2017-12-08T17:51:33.711Z,2.92
2017-12-08T17:54:02.437Z,2.10
2017-12-08T17:56:31.136Z,2.22
2017-12-08T17:58:59.832Z,2.55
2017-12-08T18:01:28.541Z,1.90
2017-12-08T18:03:57.250Z,2.35
2017-12-08T18:06:25.684Z,2.03
2017-12-08T18:08:54.434Z,2.72
2017-12-08T18:11:23.152Z,3.17
2017-12-08T18:13:51.872Z,3.10
2017-12-08T18:16:19.930Z,2.67
2017-12-08T18:18:48.458Z,3.33
2017-12-08T18:21:16.486Z,3.60
2017-12-08T18:23:44.860Z,3.92
2017-12-08T18:26:13.559Z,3.70
2017-12-08T18:28:42.064Z,3.60
2017-12-08T18:31:11.530Z,3.60
2017-12-08T18:33:39.911Z,3.45
2017-12-08T18:36:08.636Z,3.65
2017-12-08T18:38:38.205Z,3.33
2017-12-08T18:41:06.907Z,3.40
2017-12-08T18:43:35.623Z,2.90
2017-12-08T18:46:04.923Z,3.03
2017-12-08T18:48:34.383Z,3.22
2017-12-08T18:51:03.126Z,2.72
2017-12-08T18:53:31.944Z,2.55
2017-12-08T18:56:00.837Z,3.95
2017-12-08T18:58:29.189Z,4.43
2017-12-08T19:00:57.936Z,3.72
2017-12-08T19:03:26.647Z,3.80
2017-12-08T19:05:56.143Z,2.72
2017-12-08T19:08:24.855Z,3.47
2017-12-08T19:10:53.577Z,4.20
2017-12-08T19:13:22.272Z,3.35
2017-12-08T19:15:50.651Z,3.45
2017-12-08T19:18:19.412Z,3.00
2017-12-08T19:20:48.130Z,2.97
2017-12-08T19:23:16.200Z,2.72
2017-12-08T19:25:44.278Z,2.75
2017-12-08T19:28:12.997Z,3.17
2017-12-08T19:30:41.846Z,2.85
2017-12-08T19:33:10.582Z,3.65
2017-12-08T19:35:38.955Z,3.65
2017-12-08T19:38:08.487Z,3.62
2017-12-08T19:40:37.683Z,3.28
2017-12-08T19:43:07.164Z,3.45
2017-12-08T19:45:36.643Z,3.85
2017-12-08T19:48:05.040Z,3.30
2017-12-08T19:50:33.782Z,2.67
2017-12-08T19:53:03.072Z,3.97
2017-12-08T19:55:32.050Z,3.70
2017-12-08T19:58:00.941Z,4.80
2017-12-08T20:00:29.787Z,4.65
2017-12-08T20:02:58.639Z,3.80
2017-12-08T20:05:27.500Z,3.30
2017-12-08T20:07:56.820Z,3.15
2017-12-08T20:10:25.334Z,3.97
2017-12-08T20:12:54.180Z,3.78
2017-12-08T20:15:23.906Z,3.58
2017-12-08T20:17:53.105Z,4.10
2017-12-08T20:20:21.703Z,9.18
2017-12-08T20:22:51.225Z,6.90
2017-12-08T20:25:19.946Z,4.85
2017-12-08T20:27:48.659Z,4.10
2017-12-08T20:30:17.493Z,4.20
2017-12-08T20:32:46.458Z,3.40
2017-12-08T20:35:15.378Z,3.53
2017-12-08T20:37:44.354Z,4.25
2017-12-08T20:40:13.381Z,3.67
2017-12-08T20:42:43.198Z,4.47
2017-12-08T20:45:12.125Z,4.03
2017-12-08T20:47:41.753Z,3.78
2017-12-08T20:50:10.572Z,3.78
2017-12-08T20:52:39.419Z,4.20
2017-12-08T20:55:09.029Z,3.95
2017-12-08T20:57:38.653Z,4.05
2017-12-08T21:00:06.864Z,4.57
2017-12-08T21:02:35.740Z,4.53
2017-12-08T21:05:04.673Z,4.37
2017-12-08T21:07:33.539Z,3.75
2017-12-08T21:10:01.965Z,3.80
2017-12-08T21:12:30.694Z,4.57
2017-12-08T21:15:00.181Z,4.35
2017-12-08T21:17:29.658Z,4.15
2017-12-08T21:19:58.385Z,4.07
2017-12-08T21:22:27.920Z,3.33
2017-12-08T21:24:56.469Z,3.50
2017-12-08T21:27:25.289Z,3.37
2017-12-08T21:29:54.065Z,3.72
2017-12-08T21:32:22.785Z,3.97
2017-12-08T21:34:51.524Z,5.05
2017-12-08T21:37:21.003Z,4.47
2017-12-08T21:39:49.720Z,3.87
2017-12-08T21:42:19.204Z,4.45
2017-12-08T21:44:48.695Z,4.70
2017-12-08T21:47:17.437Z,4.82
2017-12-08T21:49:46.206Z,4.70
2017-12-08T21:52:15.680Z,4.80
2017-12-08T21:54:44.423Z,5.62
2017-12-08T21:57:13.133Z,5.72
2017-12-08T21:59:41.539Z,5.50
2017-12-08T22:02:09.987Z,4.70
2017-12-08T22:04:38.713Z,5.40
2017-12-08T22:07:07.459Z,5.22
2017-12-08T22:09:36.283Z,5.55
2017-12-08T22:12:05.153Z,6.60
2017-12-08T22:14:33.866Z,6.07
2017-12-08T22:17:02.577Z,4.90
2017-12-08T22:19:31.286Z,5.53
2017-12-08T22:22:00.731Z,5.43
2017-12-08T22:24:29.443Z,6.40
2017-12-08T22:26:58.291Z,6.22
2017-12-08T22:29:27.025Z,7.18
2017-12-08T22:31:55.723Z,6.53
2017-12-08T22:34:24.492Z,7.90
2017-12-08T22:36:53.204Z,6.32
2017-12-08T22:39:22.075Z,5.72
2017-12-08T22:41:50.793Z,3.28
2017-12-08T22:44:20.250Z,1.40
2017-12-08T22:46:48.990Z,2.10
2017-12-08T22:49:19.422Z,1.85
2017-12-08T22:51:48.922Z,2.03
2017-12-08T22:54:17.811Z,2.03
2017-12-08T22:56:47.312Z,1.95
2017-12-08T22:59:16.041Z,2.50
2017-12-08T23:01:44.738Z,2.30
2017-12-08T23:04:13.115Z,2.42
2017-12-08T23:06:41.835Z,2.08
2017-12-08T23:09:10.224Z,2.30
2017-12-08T23:11:38.604Z,2.55
2017-12-08T23:14:06.967Z,2.83
2017-12-08T23:16:35.726Z,2.00
2017-12-08T23:19:03.751Z,2.15
2017-12-08T23:21:32.542Z,2.37
2017-12-08T23:24:01.233Z,2.28
2017-12-08T23:26:30.257Z,4.07
2017-12-08T23:28:59.167Z,2.40
2017-12-08T23:31:27.887Z,2.67
2017-12-08T23:33:56.602Z,2.95
2017-12-08T23:36:26.095Z,2.40
2017-12-08T23:38:54.946Z,2.45
2017-12-08T23:41:23.666Z,2.58
2017-12-08T23:43:52.404Z,2.90
2017-12-08T23:46:21.115Z,2.70
2017-12-08T23:48:49.830Z,3.53
2017-12-08T23:51:18.302Z,3.40
2017-12-08T23:53:47.022Z,3.20
2017-12-08T23:56:15.734Z,3.83
2017-12-08T23:58:44.468Z,3.45
